Time;durP1;ratioP1;P1;durP2;ratioP2;P2;SDS_P1;SDS_P2;PMS_P1;PMS_P2;Temp;Humidity;BMP_temperature;BMP_pressure;BME280_temperature;BME280_humidity;BME280_pressure;Samples;Min_cycle;Max_cycle;Signal;HPM_P1;HPM_P2
2023/12/25 00:00:41;;;;;;;16.80;2.80;;;10.80;99.90;;;;;;5035410;28;20045;-70
2023/12/25 00:03:06;;;;;;;12.52;2.30;;;10.70;99.90;;;;;;5035817;28;20042;-72
2023/12/25 00:05:32;;;;;;;14.60;2.40;;;10.70;99.90;;;;;;5032438;28;20059;-74
2023/12/25 00:07:57;;;;;;;12.93;2.72;;;10.70;99.90;;;;;;5030855;28;20063;-72
2023/12/25 00:10:23;;;;;;;9.57;2.45;;;10.80;99.90;;;;;;5030495;28;20518;-72
2023/12/25 00:12:49;;;;;;;14.38;2.92;;;10.70;99.90;;;;;;5045457;28;20038;-75
2023/12/25 00:15:14;;;;;;;12.68;2.45;;;10.70;99.90;;;;;;5033375;28;20340;-70
2023/12/25 00:17:40;;;;;;;13.68;2.55;;;10.70;99.90;;;;;;5043524;28;20044;-69
2023/12/25 00:20:06;;;;;;;13.50;2.50;;;10.70;99.90;;;;;;5039957;28;20056;-67
2023/12/25 00:22:32;;;;;;;10.32;2.17;;;10.60;99.90;;;;;;5044775;28;20134;-70
2023/12/25 00:24:57;;;;;;;14.43;2.50;;;10.70;99.90;;;;;;5037730;28;20497;-72
2023/12/25 00:27:23;;;;;;;11.38;2.35;;;10.70;99.90;;;;;;5038292;28;20048;-73
2023/12/25 00:29:49;;;;;;;12.15;2.40;;;10.70;99.90;;;;;;5041315;28;20041;-75
2023/12/25 00:32:15;;;;;;;12.48;2.75;;;10.70;99.90;;;;;;5041939;28;20045;-71
2023/12/25 00:34:42;;;;;;;13.85;3.00;;;10.70;99.90;;;;;;5032342;28;20431;-70
2023/12/25 00:37:08;;;;;;;10.50;2.92;;;10.70;99.90;;;;;;5041927;28;20438;-70
2023/12/25 00:39:34;;;;;;;14.13;3.00;;;10.70;99.90;;;;;;5041096;28;20034;-68
2023/12/25 00:41:59;;;;;;;14.98;2.53;;;10.60;99.90;;;;;;5032302;28;20068;-70
2023/12/25 00:44:25;;;;;;;15.00;2.30;;;10.60;99.90;;;;;;5040211;28;20037;-70
2023/12/25 00:46:50;;;;;;;7.35;2.47;;;10.60;99.90;;;;;;5032280;28;20368;-70
2023/12/25 00:49:18;;;;;;;13.57;2.40;;;10.60;99.90;;;;;;5043962;28;20477;-71
2023/12/25 00:51:44;;;;;;;13.18;2.20;;;10.60;99.90;;;;;;5031388;28;20048;-72
2023/12/25 00:54:09;;;;;;;10.95;1.85;;;10.50;99.90;;;;;;5025017;28;20038;-69
2023/12/25 00:56:35;;;;;;;5.22;1.60;;;10.50;99.90;;;;;;5029775;28;20042;-70
2023/12/25 00:59:00;;;;;;;10.73;1.95;;;10.40;99.90;;;;;;5036594;28;20041;-69
2023/12/25 01:01:26;;;;;;;10.80;2.08;;;10.50;99.90;;;;;;5040439;28;20076;-69
2023/12/25 01:03:52;;;;;;;8.05;1.65;;;10.40;99.90;;;;;;5017532;28;20041;-69
2023/12/25 01:06:17;;;;;;;8.23;1.85;;;10.30;99.90;;;;;;5027434;28;20044;-68
2023/12/25 01:08:43;;;;;;;6.47;1.50;;;10.30;99.90;;;;;;5032799;28;20171;-69
2023/12/25 01:11:09;;;;;;;10.60;2.00;;;10.20;99.90;;;;;;5022128;28;20060;-68
2023/12/25 01:13:34;;;;;;;9.95;1.70;;;10.20;99.90;;;;;;5016820;28;20126;-70
2023/12/25 01:16:00;;;;;;;9.32;2.10;;;10.20;99.90;;;;;;5037282;28;20481;-68
2023/12/25 01:18:25;;;;;;;8.18;1.95;;;10.10;99.90;;;;;;5025775;28;20041;-67
2023/12/25 01:20:51;;;;;;;6.25;1.45;;;10.10;99.90;;;;;;5030225;28;20072;-68
2023/12/25 01:23:16;;;;;;;6.70;1.63;;;10.00;99.90;;;;;;5044143;28;20028;-67
2023/12/25 01:25:42;;;;;;;8.50;1.83;;;10.00;99.90;;;;;;5019060;28;20554;-69
2023/12/25 01:28:08;;;;;;;11.15;2.00;;;10.00;99.90;;;;;;5043469;28;20072;-68
2023/12/25 01:30:33;;;;;;;13.27;1.48;;;10.00;99.90;;;;;;5030990;28;20485;-68
2023/12/25 01:32:59;;;;;;;12.20;2.45;;;10.00;99.90;;;;;;5023297;28;20458;-70
2023/12/25 01:35:24;;;;;;;6.20;1.35;;;9.90;99.90;;;;;;5035752;28;20041;-67
2023/12/25 01:37:50;;;;;;;16.88;2.22;;;10.00;99.90;;;;;;5036661;28;20044;-67
2023/12/25 01:40:17;;;;;;;9.75;1.80;;;10.00;99.90;;;;;;5040426;28;20154;-67
2023/12/25 01:42:43;;;;;;;14.38;1.98;;;10.00;99.90;;;;;;5043603;28;20049;-68
2023/12/25 01:45:10;;;;;;;10.40;1.70;;;10.00;99.90;;;;;;5037384;28;20039;-68
2023/12/25 01:47:36;;;;;;;12.35;2.20;;;10.00;99.90;;;;;;5029245;28;20045;-69
2023/12/25 01:50:04;;;;;;;11.50;1.85;;;10.00;99.90;;;;;;5033950;28;20084;-67
2023/12/25 01:52:29;;;;;;;10.68;2.20;;;10.00;99.90;;;;;;5038070;28;20550;-68
2023/12/25 01:54:57;;;;;;;6.80;1.50;;;10.00;99.90;;;;;;5035824;28;20152;-67
2023/12/25 01:57:31;;;;;;;7.68;1.52;;;9.90;99.90;;;;;;5037915;28;20064;-67
2023/12/25 01:59:56;;;;;;;8.10;1.33;;;10.00;99.90;;;;;;5029623;28;20647;-68
2023/12/25 02:02:23;;;;;;;12.98;1.65;;;9.90;99.90;;;;;;5034735;28;20044;-68
2023/12/25 02:04:48;;;;;;;9.30;1.38;;;9.90;99.90;;;;;;5053157;28;20029;-68
2023/12/25 02:07:15;;;;;;;8.00;1.85;;;10.00;99.90;;;;;;5027991;28;20128;-68
2023/12/25 02:09:40;;;;;;;7.93;1.60;;;10.00;99.90;;;;;;5033880;28;20038;-68
2023/12/25 02:12:06;;;;;;;8.27;1.67;;;9.90;99.90;;;;;;5029820;28;20037;-67
2023/12/25 02:14:32;;;;;;;9.38;1.65;;;10.00;99.90;;;;;;5040788;28;20040;-70
2023/12/25 02:16:59;;;;;;;10.80;1.90;;;9.90;99.90;;;;;;5050014;28;20364;-68
2023/12/25 02:19:34;;;;;;;10.10;2.35;;;10.00;99.90;;;;;;5051134;28;20625;-67
2023/12/25 02:22:00;;;;;;;11.13;1.73;;;9.90;99.90;;;;;;5046068;28;20474;-68
2023/12/25 02:24:29;;;;;;;13.05;1.70;;;9.80;99.90;;;;;;5047972;28;20141;-69
2023/12/25 02:26:55;;;;;;;8.35;2.35;;;9.80;99.90;;;;;;5050374;28;20033;-69
2023/12/25 02:29:21;;;;;;;7.50;1.40;;;9.80;99.90;;;;;;5046554;28;20390;-68
2023/12/25 02:31:48;;;;;;;9.95;1.58;;;9.80;99.90;;;;;;5040691;28;20046;-70
2023/12/25 02:34:14;;;;;;;11.85;1.50;;;9.90;99.90;;;;;;5038298;28;20103;-69
2023/12/25 02:36:40;;;;;;;6.40;1.50;;;9.90;99.90;;;;;;5045160;28;20087;-69
2023/12/25 02:39:05;;;;;;;6.22;1.70;;;9.80;99.90;;;;;;5042289;28;20477;-70
2023/12/25 02:41:31;;;;;;;7.15;1.40;;;9.90;99.90;;;;;;5041688;28;20037;-69
2023/12/25 02:43:56;;;;;;;4.82;1.42;;;10.00;99.90;;;;;;5049113;28;20036;-69
2023/12/25 02:46:22;;;;;;;10.07;1.77;;;9.90;99.90;;;;;;5046943;28;20037;-68
2023/12/25 02:48:48;;;;;;;8.70;1.30;;;9.90;99.90;;;;;;5050975;28;20084;-69
2023/12/25 02:51:13;;;;;;;10.20;1.48;;;9.90;99.90;;;;;;5032956;28;20090;-70
2023/12/25 02:53:39;;;;;;;9.55;1.42;;;9.90;99.90;;;;;;5042996;28;20064;-68
2023/12/25 02:56:05;;;;;;;5.35;1.15;;;10.00;99.90;;;;;;5018787;28;20068;-67
2023/12/25 02:58:30;;;;;;;11.45;1.52;;;9.90;99.90;;;;;;5034728;28;20106;-67
2023/12/25 03:00:56;;;;;;;9.15;1.40;;;10.00;99.90;;;;;;5049400;28;20037;-66
2023/12/25 03:03:21;;;;;;;5.60;1.33;;;9.90;99.90;;;;;;5037065;28;20587;-67
2023/12/25 03:05:47;;;;;;;6.25;1.13;;;9.90;99.90;;;;;;5033933;28;20040;-67
2023/12/25 03:08:13;;;;;;;7.40;1.30;;;9.80;99.90;;;;;;5019274;28;20120;-67
2023/12/25 03:10:39;;;;;;;12.57;1.40;;;9.90;99.90;;;;;;5047883;28;20045;-67
2023/12/25 03:13:05;;;;;;;10.00;1.40;;;9.80;99.90;;;;;;5025944;28;20048;-65
2023/12/25 03:15:32;;;;;;;5.65;1.20;;;9.80;99.90;;;;;;5039835;28;20048;-67
2023/12/25 03:17:57;;;;;;;10.82;1.33;;;9.80;99.90;;;;;;5042470;28;20734;-68
2023/12/25 03:20:23;;;;;;;6.35;1.00;;;9.80;99.90;;;;;;5014126;28;20099;-68
2023/12/25 03:22:49;;;;;;;5.18;1.83;;;9.90;99.90;;;;;;5046608;28;20045;-68
2023/12/25 03:25:14;;;;;;;5.75;1.20;;;9.80;99.90;;;;;;5032960;28;20500;-67
2023/12/25 03:27:40;;;;;;;5.70;1.42;;;9.90;99.90;;;;;;5049974;28;20036;-68
2023/12/25 03:30:06;;;;;;;8.70;1.70;;;9.80;99.90;;;;;;5043103;28;20057;-67
2023/12/25 03:32:33;;;;;;;6.05;1.00;;;9.80;99.90;;;;;;5031432;28;20045;-67
2023/12/25 03:34:59;;;;;;;5.90;1.23;;;9.90;99.90;;;;;;5035096;28;20032;-67
2023/12/25 03:37:25;;;;;;;7.55;1.15;;;9.80;99.90;;;;;;5039315;28;20049;-68
2023/12/25 03:39:52;;;;;;;12.02;1.55;;;9.90;99.90;;;;;;5049570;28;20041;-67
2023/12/25 03:42:18;;;;;;;4.43;1.40;;;9.90;99.90;;;;;;5043248;28;20054;-68
2023/12/25 03:44:44;;;;;;;5.28;1.20;;;9.80;99.90;;;;;;5016033;28;20124;-67
2023/12/25 03:47:11;;;;;;;12.65;1.83;;;9.80;99.90;;;;;;5035886;28;20445;-67
2023/12/25 03:49:36;;;;;;;7.70;1.20;;;9.90;99.90;;;;;;5046557;28;20036;-67
2023/12/25 03:52:02;;;;;;;4.75;1.02;;;9.90;99.90;;;;;;5032053;28;20344;-67
2023/12/25 03:54:28;;;;;;;6.60;1.92;;;9.90;99.90;;;;;;5020887;28;20076;-68
2023/12/25 03:56:54;;;;;;;5.60;1.10;;;9.90;99.90;;;;;;5045674;28;20032;-67
2023/12/25 03:59:19;;;;;;;8.52;1.20;;;9.90;99.90;;;;;;5035347;28;20193;-67
2023/12/25 04:01:45;;;;;;;7.63;1.63;;;9.90;99.90;;;;;;5049141;28;20052;-67
2023/12/25 04:04:11;;;;;;;7.40;1.30;;;9.90;99.90;;;;;;5038282;28;20044;-68
2023/12/25 04:06:36;;;;;;;5.07;1.20;;;9.90;99.90;;;;;;5033120;28;20095;-68
2023/12/25 04:09:04;;;;;;;8.48;1.30;;;9.90;99.90;;;;;;5029972;28;20052;-72
2023/12/25 04:11:30;;;;;;;5.50;1.05;;;9.90;99.90;;;;;;5051352;28;20056;-68
2023/12/25 04:13:56;;;;;;;6.28;1.30;;;9.90;99.90;;;;;;5032070;28;20045;-67
2023/12/25 04:16:22;;;;;;;7.95;1.45;;;9.90;99.90;;;;;;5033792;28;20029;-67
2023/12/25 04:18:48;;;;;;;8.70;1.08;;;9.80;99.90;;;;;;5038170;28;20068;-68
2023/12/25 04:21:21;;;;;;;10.30;1.42;;;9.80;99.90;;;;;;5035539;28;20485;-67
2023/12/25 04:23:46;;;;;;;7.72;1.10;;;9.80;99.90;;;;;;5048597;28;20385;-67
2023/12/25 04:26:12;;;;;;;7.10;1.10;;;9.80;99.90;;;;;;5042043;28;20048;-68
2023/12/25 04:28:37;;;;;;;4.93;1.27;;;9.80;99.90;;;;;;5031716;28;20041;-67
2023/12/25 04:31:03;;;;;;;8.10;1.90;;;9.80;99.90;;;;;;5045990;28;20136;-66
2023/12/25 04:33:29;;;;;;;10.40;1.50;;;9.80;99.90;;;;;;5034044;28;20052;-66
2023/12/25 04:35:54;;;;;;;7.07;1.27;;;9.80;99.90;;;;;;5015769;28;20041;-66
2023/12/25 04:38:20;;;;;;;7.57;1.10;;;9.80;99.90;;;;;;5012293;28;20047;-66
2023/12/25 04:40:45;;;;;;;8.20;1.30;;;9.90;99.90;;;;;;5033276;28;20099;-68
2023/12/25 04:43:11;;;;;;;4.97;1.27;;;9.90;99.90;;;;;;5040171;28;21486;-66
2023/12/25 04:45:37;;;;;;;7.70;1.23;;;9.90;99.90;;;;;;5037215;28;20037;-67
2023/12/25 04:48:03;;;;;;;3.72;1.10;;;9.90;99.90;;;;;;5040710;28;20049;-67
2023/12/25 04:50:28;;;;;;;9.02;1.80;;;10.00;99.90;;;;;;5036570;28;20037;-66
2023/12/25 04:52:54;;;;;;;7.75;1.55;;;10.00;99.90;;;;;;5033873;28;20060;-67
2023/12/25 04:55:19;;;;;;;10.30;1.98;;;10.10;99.90;;;;;;5042695;28;20051;-66
2023/12/25 04:57:45;;;;;;;7.82;1.50;;;10.00;99.90;;;;;;5042489;28;20069;-68
2023/12/25 05:00:11;;;;;;;7.30;1.05;;;10.10;99.90;;;;;;5017491;28;20036;-65
2023/12/25 05:02:37;;;;;;;6.78;1.42;;;10.10;99.90;;;;;;5049327;28;20029;-66
2023/12/25 05:05:03;;;;;;;6.20;1.30;;;10.20;99.90;;;;;;5037640;28;20038;-66
2023/12/25 05:07:29;;;;;;;7.30;1.42;;;10.20;99.90;;;;;;5030310;28;20060;-66
2023/12/25 05:09:54;;;;;;;6.88;1.40;;;10.20;99.90;;;;;;5028969;28;20060;-68
2023/12/25 05:12:20;;;;;;;9.43;1.60;;;10.20;99.90;;;;;;5030593;28;20486;-68
2023/12/25 05:14:46;;;;;;;7.57;1.40;;;10.20;99.90;;;;;;5045573;28;20041;-67
2023/12/25 05:17:12;;;;;;;8.63;2.00;;;10.20;99.90;;;;;;5029566;28;20550;-66
2023/12/25 05:19:37;;;;;;;8.20;1.50;;;10.10;99.90;;;;;;5048227;28;20066;-68
2023/12/25 05:22:05;;;;;;;6.55;1.15;;;10.20;99.90;;;;;;5023826;28;20122;-66
2023/12/25 05:24:31;;;;;;;8.07;1.23;;;10.20;99.90;;;;;;5021422;28;20051;-69
2023/12/25 05:26:57;;;;;;;8.15;1.30;;;10.20;99.90;;;;;;5038895;28;20037;-68
2023/12/25 05:29:22;;;;;;;6.78;1.50;;;10.30;99.90;;;;;;5036404;28;20033;-67
2023/12/25 05:31:48;;;;;;;6.28;1.40;;;10.30;99.90;;;;;;5043660;28;20044;-67
2023/12/25 05:34:13;;;;;;;6.32;1.30;;;10.30;99.90;;;;;;5044637;28;20116;-67
2023/12/25 05:36:39;;;;;;;9.38;1.80;;;10.30;99.90;;;;;;5035558;28;20044;-68
2023/12/25 05:39:04;;;;;;;7.55;1.35;;;10.30;99.90;;;;;;5035438;28;20446;-69
2023/12/25 05:41:30;;;;;;;10.68;1.42;;;10.30;99.90;;;;;;5050267;28;20048;-66
2023/12/25 05:43:56;;;;;;;12.30;1.73;;;10.40;99.90;;;;;;5035610;28;20541;-67
2023/12/25 05:46:21;;;;;;;7.68;1.27;;;10.40;99.90;;;;;;5034550;28;20043;-67
2023/12/25 05:48:47;;;;;;;8.05;1.70;;;10.40;99.90;;;;;;5051288;28;20044;-65
2023/12/25 05:51:12;;;;;;;9.38;1.58;;;10.30;99.90;;;;;;5046558;28;20045;-66
2023/12/25 05:53:38;;;;;;;8.35;1.70;;;10.30;99.90;;;;;;5052830;28;20033;-67
2023/12/25 05:56:04;;;;;;;10.70;1.50;;;10.40;99.90;;;;;;5043464;28;20424;-66
2023/12/25 05:58:29;;;;;;;10.68;1.55;;;10.30;99.90;;;;;;5050080;28;20160;-68
2023/12/25 06:00:55;;;;;;;6.80;1.52;;;10.30;99.90;;;;;;5031221;28;20069;-67
2023/12/25 06:03:21;;;;;;;3.80;1.40;;;10.30;99.90;;;;;;5048903;28;20119;-67
2023/12/25 06:05:46;;;;;;;5.40;1.70;;;10.30;99.90;;;;;;5040188;28;20041;-66
2023/12/25 06:08:12;;;;;;;9.60;1.80;;;10.40;99.90;;;;;;5051157;28;20051;-67
2023/12/25 06:10:37;;;;;;;9.70;1.40;;;10.40;99.90;;;;;;5047750;28;20378;-66
2023/12/25 06:13:03;;;;;;;7.00;1.15;;;10.30;99.90;;;;;;5040303;28;20045;-66
2023/12/25 06:15:29;;;;;;;7.05;1.67;;;10.30;99.90;;;;;;5044749;28;20041;-66
2023/12/25 06:17:54;;;;;;;4.45;1.05;;;10.30;99.90;;;;;;5038966;28;20508;-66
2023/12/25 06:20:24;;;;;;;10.90;1.70;;;10.20;99.90;;;;;;5032675;28;20045;-67
2023/12/25 06:22:50;;;;;;;8.38;1.70;;;10.10;99.90;;;;;;5039209;28;20124;-66
2023/12/25 06:25:16;;;;;;;13.55;1.83;;;10.10;99.90;;;;;;5040770;28;20133;-66
2023/12/25 06:27:42;;;;;;;7.30;1.40;;;10.00;99.90;;;;;;5053856;28;20044;-66
2023/12/25 06:30:08;;;;;;;7.70;1.48;;;9.90;99.90;;;;;;5030871;28;20052;-67
2023/12/25 06:32:33;;;;;;;6.20;1.25;;;9.90;4.10;;;;;;5039820;28;20049;-66
2023/12/25 06:34:59;;;;;;;9.07;1.70;;;9.80;1.00;;;;;;5032443;28;20445;-67
2023/12/25 06:37:25;;;;;;;10.40;2.00;;;9.90;99.90;;;;;;5040527;28;20111;-66
2023/12/25 06:39:50;;;;;;;4.70;1.10;;;9.70;99.90;;;;;;5038056;28;20076;-66
2023/12/25 06:42:16;;;;;;;7.22;1.45;;;9.80;99.90;;;;;;5033407;28;20088;-67
2023/12/25 06:44:41;;;;;;;9.38;1.75;;;9.70;99.90;;;;;;5035892;28;20170;-66
2023/12/25 06:47:07;;;;;;;9.52;1.60;;;9.80;99.90;;;;;;5034134;28;20036;-66
2023/12/25 06:49:33;;;;;;;8.15;1.55;;;9.80;99.90;;;;;;5040349;28;20036;-67
2023/12/25 06:51:59;;;;;;;14.10;1.83;;;9.70;99.90;;;;;;5046357;28;20059;-67
2023/12/25 06:54:25;;;;;;;8.05;1.40;;;9.70;99.90;;;;;;5044567;28;20479;-67
2023/12/25 06:56:50;;;;;;;8.68;1.58;;;9.70;99.90;;;;;;5035729;28;20048;-67
2023/12/25 06:59:16;;;;;;;14.43;1.63;;;9.80;89.90;;;;;;5040088;28;20029;-67
2023/12/25 07:01:42;;;;;;;8.88;1.52;;;9.80;1.00;;;;;;5044907;28;20056;-67
2023/12/25 07:04:09;;;;;;;9.45;1.58;;;9.90;90.30;;;;;;5037247;28;20055;-66
2023/12/25 07:06:35;;;;;;;9.23;1.65;;;9.90;1.00;;;;;;5029023;28;20045;-66
2023/12/25 07:09:00;;;;;;;6.55;1.55;;;9.90;1.00;;;;;;5031305;28;20116;-66
2023/12/25 07:11:27;;;;;;;9.80;1.58;;;9.90;1.00;;;;;;5038573;28;20124;-66
2023/12/25 07:13:55;;;;;;;9.60;1.88;;;9.90;8.60;;;;;;5035049;28;20126;-67
2023/12/25 07:16:22;;;;;;;10.55;1.50;;;9.90;1.00;;;;;;5031559;28;20080;-66
2023/12/25 07:18:50;;;;;;;8.52;1.60;;;9.80;1.00;;;;;;5051019;28;20065;-66
2023/12/25 07:21:15;;;;;;;7.45;1.77;;;9.90;1.00;;;;;;5037462;28;20042;-66
2023/12/25 07:23:41;;;;;;;8.55;1.58;;;9.80;1.00;;;;;;5034863;28;20049;-66
2023/12/25 07:26:07;;;;;;;10.43;1.80;;;9.70;1.00;;;;;;5044046;28;20038;-66
2023/12/25 07:28:33;;;;;;;10.30;2.40;;;9.60;1.00;;;;;;5049713;28;20462;-67
2023/12/25 07:31:00;;;;;;;5.95;1.70;;;9.60;1.00;;;;;;5038556;28;20049;-67
2023/12/25 07:33:26;;;;;;;7.80;2.25;;;9.50;1.00;;;;;;5042876;28;20081;-66
2023/12/25 07:35:52;;;;;;;11.00;1.90;;;9.50;1.00;;;;;;5022115;28;20060;-67
2023/12/25 07:38:18;;;;;;;6.88;1.58;;;9.50;1.00;;;;;;5029923;28;20077;-67
2023/12/25 07:40:44;;;;;;;8.55;1.90;;;9.50;1.00;;;;;;5036613;28;20041;-67
2023/12/25 07:43:12;;;;;;;7.97;1.67;;;9.40;1.00;;;;;;5046227;28;20060;-67
2023/12/25 07:45:38;;;;;;;11.52;1.80;;;9.40;99.90;;;;;;5032083;28;20433;-68
2023/12/25 07:48:04;;;;;;;15.25;1.95;;;9.40;1.00;;;;;;5031083;28;20045;-66
2023/12/25 07:50:29;;;;;;;13.85;2.05;;;9.40;1.00;;;;;;5029749;28;20072;-68
2023/12/25 07:52:55;;;;;;;7.40;1.85;;;9.40;1.00;;;;;;5039964;28;21157;-66
2023/12/25 07:55:21;;;;;;;11.95;1.58;;;9.40;1.00;;;;;;5040281;28;20103;-67
2023/12/25 07:57:46;;;;;;;5.18;1.42;;;9.40;1.00;;;;;;5033304;28;20429;-67
2023/12/25 08:00:12;;;;;;;12.25;2.25;;;9.40;1.00;;;;;;5027201;28;20038;-66
2023/12/25 08:02:38;;;;;;;13.52;1.92;;;9.40;1.00;;;;;;5030369;28;20064;-66
2023/12/25 08:05:05;;;;;;;7.80;1.67;;;9.40;1.00;;;;;;5040824;28;20060;-67
2023/12/25 08:07:31;;;;;;;8.63;2.25;;;9.40;1.00;;;;;;5036423;28;20128;-67
2023/12/25 08:09:56;;;;;;;9.18;1.77;;;9.30;1.00;;;;;;5043332;28;20112;-68
2023/12/25 08:12:22;;;;;;;11.38;2.10;;;9.40;1.00;;;;;;5040175;28;20100;-66
2023/12/25 08:14:47;;;;;;;8.48;1.73;;;9.40;1.00;;;;;;5034294;28;20035;-66
2023/12/25 08:17:13;;;;;;;10.45;2.05;;;9.40;1.00;;;;;;5018571;28;20397;-66
2023/12/25 08:19:39;;;;;;;9.93;1.83;;;9.40;1.00;;;;;;5036462;28;20489;-67
2023/12/25 08:22:05;;;;;;;7.53;1.70;;;9.40;1.00;;;;;;5033904;28;20045;-66
2023/12/25 08:24:31;;;;;;;11.20;1.80;;;9.30;1.00;;;;;;5029106;28;20045;-67
2023/12/25 08:26:57;;;;;;;7.20;1.80;;;9.30;1.00;;;;;;5034193;28;20095;-67
2023/12/25 08:29:22;;;;;;;9.15;2.47;;;9.30;1.00;;;;;;5021673;28;20128;-68
2023/12/25 08:31:48;;;;;;;9.38;1.83;;;9.30;1.00;;;;;;5043283;28;20055;-67
2023/12/25 08:34:13;;;;;;;8.13;1.45;;;9.30;1.00;;;;;;5043987;28;20120;-67
2023/12/25 08:36:39;;;;;;;8.77;1.92;;;9.30;1.00;;;;;;5040745;28;20038;-66
2023/12/25 08:39:05;;;;;;;15.38;1.98;;;9.30;1.00;;;;;;5031722;28;20041;-66
2023/12/25 08:41:30;;;;;;;7.95;1.85;;;9.30;1.00;;;;;;5037870;28;20063;-66
2023/12/25 08:43:56;;;;;;;10.40;2.03;;;9.20;1.00;;;;;;5041102;28;20545;-67
2023/12/25 08:46:22;;;;;;;8.88;1.80;;;9.20;1.00;;;;;;5047673;28;20068;-66
2023/12/25 08:48:48;;;;;;;10.05;1.60;;;9.20;1.00;;;;;;5035329;28;20128;-67
2023/12/25 08:51:14;;;;;;;12.73;1.60;;;9.20;1.00;;;;;;5047354;28;20065;-66
2023/12/25 08:53:40;;;;;;;11.88;1.70;;;9.20;1.00;;;;;;5041339;28;20033;-67
2023/12/25 08:56:05;;;;;;;10.27;1.90;;;9.20;1.00;;;;;;5031032;28;20175;-67
2023/12/25 08:58:31;;;;;;;11.00;1.90;;;9.20;1.00;;;;;;5030768;28;20037;-66
2023/12/25 09:00:56;;;;;;;10.57;2.10;;;9.20;1.00;;;;;;5036640;28;20144;-66
2023/12/25 09:03:22;;;;;;;10.25;1.60;;;9.20;1.00;;;;;;5019524;28;20128;-66
2023/12/25 09:05:48;;;;;;;6.82;1.35;;;9.30;1.00;;;;;;5023533;28;20355;-67
2023/12/25 09:08:13;;;;;;;14.18;1.85;;;9.30;1.00;;;;;;5044826;28;20037;-66
2023/12/25 09:10:39;;;;;;;11.98;2.15;;;9.30;1.00;;;;;;5033424;28;20069;-66
2023/12/25 09:13:05;;;;;;;13.82;2.03;;;9.30;1.00;;;;;;5016448;28;20171;-67
2023/12/25 09:15:30;;;;;;;12.27;2.10;;;9.30;1.00;;;;;;5034997;28;20041;-68
2023/12/25 09:17:56;;;;;;;8.70;1.70;;;9.30;99.90;;;;;;5042732;28;20098;-67
2023/12/25 09:20:22;;;;;;;9.30;1.60;;;9.30;1.00;;;;;;5032976;28;20033;-67
2023/12/25 09:22:48;;;;;;;10.18;1.98;;;9.30;1.00;;;;;;5025897;28;20394;-67
2023/12/25 09:25:13;;;;;;;13.57;2.10;;;9.30;1.00;;;;;;5035987;28;20037;-67
2023/12/25 09:27:39;;;;;;;11.65;2.00;;;9.30;1.00;;;;;;5049508;28;20326;-67
2023/12/25 09:30:05;;;;;;;9.15;2.08;;;9.30;1.00;;;;;;5040532;28;20056;-67
2023/12/25 09:32:32;;;;;;;13.35;1.80;;;9.30;1.00;;;;;;5029941;28;20066;-67
2023/12/25 09:34:58;;;;;;;13.93;2.13;;;9.30;1.00;;;;;;5029892;28;20127;-67
2023/12/25 09:37:25;;;;;;;10.27;2.20;;;9.30;1.00;;;;;;5036269;28;20395;-67
2023/12/25 09:39:51;;;;;;;13.13;2.08;;;9.30;99.90;;;;;;5034319;28;20037;-66
2023/12/25 09:42:17;;;;;;;9.18;1.77;;;9.30;99.90;;;;;;5039032;28;20466;-67
2023/12/25 09:44:44;;;;;;;11.93;2.05;;;9.40;99.90;;;;;;5030626;28;20041;-67
2023/12/25 09:47:10;;;;;;;9.95;1.98;;;9.40;99.90;;;;;;5018164;28;20638;-67
2023/12/25 09:49:38;;;;;;;13.52;2.42;;;9.50;99.90;;;;;;5033546;28;20472;-67
2023/12/25 09:52:04;;;;;;;9.85;1.98;;;9.60;99.90;;;;;;5046566;28;20077;-68
2023/12/25 09:54:29;;;;;;;8.75;2.47;;;9.60;99.90;;;;;;5017463;28;20672;-68
2023/12/25 09:56:58;;;;;;;6.35;1.67;;;9.70;99.90;;;;;;5019503;28;20048;-67
2023/12/25 09:59:27;;;;;;;13.10;2.45;;;9.80;99.90;;;;;;5031099;28;20077;-67
2023/12/25 10:01:53;;;;;;;8.30;2.10;;;9.90;99.90;;;;;;5040542;28;20091;-67
2023/12/25 10:04:19;;;;;;;11.45;2.25;;;9.90;99.90;;;;;;5032319;28;20458;-67
2023/12/25 10:06:45;;;;;;;17.35;2.70;;;10.00;99.90;;;;;;5010815;28;20449;-67
2023/12/25 10:09:11;;;;;;;13.98;2.15;;;10.00;99.90;;;;;;5020993;28;20091;-67
2023/12/25 10:11:37;;;;;;;17.55;4.28;;;10.10;99.90;;;;;;5043942;28;20037;-68
2023/12/25 10:14:03;;;;;;;7.75;3.00;;;10.10;99.90;;;;;;5047750;28;20068;-69
2023/12/25 10:16:29;;;;;;;14.02;3.55;;;10.10;99.90;;;;;;5045009;28;20424;-67
2023/12/25 10:18:58;;;;;;;20.48;6.40;;;10.00;99.90;;;;;;5034863;28;20045;-67
2023/12/25 10:21:23;;;;;;;19.38;8.32;;;10.10;99.90;;;;;;5025262;28;20033;-68
2023/12/25 10:23:49;;;;;;;20.50;6.82;;;10.10;99.90;;;;;;5030524;28;20551;-68
2023/12/25 10:26:27;;;;;;;15.07;5.43;;;10.20;99.90;;;;;;5036803;28;20103;-67
2023/12/25 10:28:52;;;;;;;20.00;4.90;;;10.20;99.90;;;;;;5034560;28;20049;-70
2023/12/25 10:31:27;;;;;;;18.45;5.93;;;10.20;99.90;;;;;;5004134;28;20053;-69
2023/12/25 10:33:59;;;;;;;13.50;4.07;;;10.20;99.90;;;;;;5043469;28;20044;-69
2023/12/25 10:36:26;;;;;;;13.98;4.45;;;10.20;99.90;;;;;;5025463;28;20041;-70
2023/12/25 10:38:52;;;;;;;14.38;3.15;;;10.20;99.90;;;;;;5034314;28;20105;-70
2023/12/25 10:41:22;;;;;;;12.23;2.65;;;10.20;99.90;;;;;;5041601;28;20493;-69
2023/12/25 10:43:53;;;;;;;15.02;3.00;;;10.10;99.90;;;;;;5037085;28;20041;-73
2023/12/25 10:46:46;;;;;;;13.00;2.40;;;10.10;99.90;;;;;;5020447;28;20037;-72
2023/12/25 10:49:12;;;;;;;12.25;2.92;;;10.10;99.90;;;;;;5049972;28;20440;-71
2023/12/25 10:51:46;;;;;;;13.55;2.50;;;10.10;99.90;;;;;;5036911;28;20113;-71
2023/12/25 10:54:13;;;;;;;16.67;2.80;;;10.00;99.90;;;;;;5038598;28;20038;-69
2023/12/25 10:56:45;;;;;;;10.95;2.55;;;10.10;99.90;;;;;;5033087;28;20052;-71
2023/12/25 10:59:27;;;;;;;16.63;2.70;;;10.10;99.90;;;;;;5036516;28;20075;-70
2023/12/25 11:01:54;;;;;;;15.77;2.40;;;10.10;99.90;;;;;;5035586;28;20513;-71
2023/12/25 11:04:20;;;;;;;9.07;2.38;;;10.10;99.90;;;;;;5041196;28;20043;-70
2023/12/25 11:06:47;;;;;;;16.92;2.97;;;10.10;99.90;;;;;;5033134;28;20033;-71
2023/12/25 11:09:17;;;;;;;15.13;2.25;;;10.10;99.90;;;;;;5036863;28;20045;-70
2023/12/25 11:11:44;;;;;;;11.38;2.35;;;10.10;99.90;;;;;;5032650;28;20049;-70
2023/12/25 11:14:11;;;;;;;6.88;1.90;;;10.20;99.90;;;;;;5028166;28;20094;-71
2023/12/25 11:16:37;;;;;;;14.68;2.17;;;10.20;99.90;;;;;;5052233;28;20033;-71
2023/12/25 11:19:04;;;;;;;11.45;2.15;;;10.10;99.90;;;;;;5043834;28;20041;-71
2023/12/25 11:21:32;;;;;;;13.80;3.13;;;10.10;99.90;;;;;;5036552;28;20049;-71
2023/12/25 11:23:59;;;;;;;10.77;2.65;;;10.10;99.90;;;;;;5014448;28;20489;-71
2023/12/25 11:26:27;;;;;;;7.45;3.15;;;10.10;99.90;;;;;;5015933;28;20052;-71
2023/12/25 11:29:07;;;;;;;10.10;3.20;;;10.10;99.90;;;;;;5017105;28;20038;-72
2023/12/25 11:31:51;;;;;;;24.53;14.17;;;10.00;99.90;;;;;;5033360;28;20065;-72
2023/12/25 11:34:22;;;;;;;12.23;5.20;;;9.90;99.90;;;;;;5045632;28;20045;-72
2023/12/25 11:36:57;;;;;;;12.98;5.05;;;9.90;99.90;;;;;;5045650;28;20401;-72
2023/12/25 11:39:27;;;;;;;17.25;4.22;;;9.80;99.90;;;;;;5049596;28;20060;-72
2023/12/25 11:41:54;;;;;;;13.98;4.15;;;9.70;99.90;;;;;;5050061;28;20438;-70
2023/12/25 11:44:32;;;;;;;11.52;3.15;;;9.60;99.90;;;;;;5034474;28;20041;-70
2023/12/25 11:47:02;;;;;;;10.43;2.63;;;9.60;99.90;;;;;;5050363;28;20039;-70
2023/12/25 11:49:31;;;;;;;11.52;2.67;;;9.50;99.90;;;;;;5045726;28;20044;-69
2023/12/25 11:51:57;;;;;;;15.52;2.53;;;9.50;99.90;;;;;;5044084;28;20034;-69
2023/12/25 11:54:29;;;;;;;14.00;3.03;;;9.60;99.90;;;;;;5015142;28;20069;-71
2023/12/25 11:57:14;;;;;;;12.82;2.45;;;9.50;99.90;;;;;;5026234;28;20038;-70
2023/12/25 11:59:41;;;;;;;14.20;2.38;;;9.40;99.90;;;;;;5045510;28;20464;-70
2023/12/25 12:02:08;;;;;;;9.77;2.33;;;9.40;99.90;;;;;;5047021;28;20120;-70
2023/12/25 12:04:34;;;;;;;13.18;2.35;;;9.50;99.90;;;;;;5039962;28;20465;-70
2023/12/25 12:06:59;;;;;;;11.63;2.65;;;9.60;99.90;;;;;;5032383;28;20044;-70
2023/12/25 12:09:25;;;;;;;9.48;2.60;;;9.60;99.90;;;;;;5045363;28;20112;-70
2023/12/25 12:11:51;;;;;;;10.48;2.80;;;9.70;99.90;;;;;;5047771;28;20462;-70
2023/12/25 12:14:16;;;;;;;9.77;2.22;;;9.80;1.00;;;;;;5046483;28;20066;-71
2023/12/25 12:16:42;;;;;;;10.77;2.35;;;9.90;99.90;;;;;;5019784;28;20044;-71
2023/12/25 12:19:12;;;;;;;12.30;2.28;;;9.90;99.90;;;;;;5035571;28;20041;-71
2023/12/25 12:21:39;;;;;;;15.80;5.65;;;9.80;99.90;;;;;;5013155;28;20065;-71
2023/12/25 12:24:04;;;;;;;78.88;21.05;;;9.80;99.90;;;;;;5030763;28;20049;-70
2023/12/25 12:26:31;;;;;;;46.30;12.15;;;9.80;99.90;;;;;;5022804;28;20397;-70
2023/12/25 12:28:56;;;;;;;19.52;5.15;;;9.80;99.90;;;;;;5037626;28;20041;-71
2023/12/25 12:31:22;;;;;;;19.30;5.68;;;9.80;99.90;;;;;;5034587;28;20060;-71
2023/12/25 12:33:48;;;;;;;17.23;4.45;;;9.70;99.90;;;;;;5020412;28;20060;-68
2023/12/25 12:36:14;;;;;;;10.93;2.60;;;9.70;99.90;;;;;;5029591;28;20080;-71
2023/12/25 12:38:43;;;;;;;9.95;2.22;;;9.70;99.90;;;;;;5048652;28;20041;-69
2023/12/25 12:41:12;;;;;;;9.55;2.67;;;9.80;99.90;;;;;;5039821;28;20116;-71
2023/12/25 12:43:39;;;;;;;9.15;2.70;;;9.70;99.90;;;;;;5030917;28;20162;-70
2023/12/25 12:46:13;;;;;;;10.85;2.13;;;9.80;99.90;;;;;;5037843;28;20168;-71